Airfield :
LOGIN :

Register | Disclaimer

   EN    FR    IT 

 










Legend :    VFR   Marginal VFR   IFR   Intensive IFR   Very Intensive IFR
Visi :
Ceiling :
>= 8 km
>= 3000ft
5 to 8 km
1000 to 3000 ft
1500m to 5 km
500 to 1000 ft
800 to 1500m
200 to 500 ft
< 800m
< 200 ft
Symbols :   Thunderstorms  Fog  Heavy snow  Heavy precipitations  Wind > 20 kt
SIGMETs :     Misc.  Thunderstorms  Icing  Turbulence  Mountain Waves  Volcanic Ashes






- Airport Elevation : 788 ft
- IATA code : DCM


LFCK - Castres-Mazamet

CURRENT METAR :
  • 121300Z AUTO 31011KT 9999 -RA BKN020/// BKN032/// BKN049/// ///TCU 10/08 Q1010 TEMPO 31015G25KT 4500 SHRA BKN006 SCT022TCU

EXPIRED METARs :
  • 121230Z AUTO 30014KT 9999 BKN013/// BKN026/// BKN031/// ///TCU 10/08 Q1011 TEMPO 31015G25KT 4500 SHRA BKN006 SCT022TCU
  • 121200Z AUTO 30014KT 9999 SCT013/// BKN020/// BKN031/// ///TCU 10/08 Q1011 TEMPO 31015G25KT 4500 SHRA BKN006 SCT022TCU
  • 121130Z AUTO 30010KT 9999 BKN013/// BKN019/// BKN033/// ///TCU 10/08 Q1012 TEMPO 31015G25KT 4500 SHRA BKN006 SCT022TCU
  • 121100Z AUTO 29012KT 9999 BKN014/// OVC019/// ///CB 09/07 Q1012 TEMPO 31015G25KT 4500 SHRA BKN006 SCT022TCU
  • 121030Z AUTO 31011KT 9999 BKN014 BKN025 BKN035 09/07 Q1013 TEMPO 31015G25KT 4500 SHRA BKN006 SCT022TCU

TAF TAF LFCK
Valid from the 12 at 12:00 until the 12 at 21:00 UTC


121100Z 1212/1221 30010KT 9999 BKN014
TEMPO 1212/1221 4500 SHRA BKN006 SCT022TCU
PROB40
TEMPO 1212/1216 31015G25KT



MET'MAP, your aeronautical weather chart ! - Copyright ORBIFLY December 2007 - Disclaimer

ORBIFLY MET'MAP TEAM :

Programming & Development : Alexandra Zaïnal
Concept & Development : Baudouin d'Aumeries
Co-Development & Prog : Marc-Olivier Méhu
Technical & hardware support : Manuel Goepfert

Contact : metmap@orbifly.com




SOURCES & CREDITS :

   NOAA